Time;durP1;ratioP1;P1;durP2;ratioP2;P2;SDS_P1;SDS_P2;PMS_P1;PMS_P2;Temp;Humidity;BMP_temperature;BMP_pressure;BME280_temperature;BME280_humidity;BME280_pressure;Samples;Min_cycle;Max_cycle;Signal;HPM_P1;HPM_P2
2021/06/03 00:00:48;;;;;;;7.38;4.53;;;20.00;64.10;;;;;;5005897;28;20076;-76
2021/06/03 00:03:15;;;;;;;5.57;4.00;;;19.90;64.00;;;;;;5009456;28;20026;-76
2021/06/03 00:05:43;;;;;;;5.30;4.10;;;19.90;64.30;;;;;;5005233;28;20033;-76
2021/06/03 00:08:09;;;;;;;5.88;4.05;;;19.90;64.30;;;;;;5015677;28;20037;-76
2021/06/03 00:10:39;;;;;;;6.53;4.15;;;19.90;64.40;;;;;;5006527;28;20569;-76
2021/06/03 00:13:05;;;;;;;8.00;4.32;;;19.90;64.60;;;;;;5005149;28;20026;-76
2021/06/03 00:15:32;;;;;;;8.68;4.78;;;19.90;65.10;;;;;;5003846;28;20030;-76
2021/06/03 00:17:58;;;;;;;6.35;4.70;;;19.80;64.70;;;;;;5006547;28;20053;-74
2021/06/03 00:20:27;;;;;;;6.40;4.47;;;19.80;64.70;;;;;;5008569;28;20076;-75
2021/06/03 00:22:54;;;;;;;5.13;4.40;;;19.80;64.80;;;;;;5003986;28;20026;-76
2021/06/03 00:25:20;;;;;;;5.78;4.25;;;19.80;64.80;;;;;;5007192;28;20118;-76
2021/06/03 00:27:46;;;;;;;5.50;4.20;;;19.80;64.90;;;;;;5009876;28;20029;-77
2021/06/03 00:30:12;;;;;;;5.32;3.90;;;19.70;65.10;;;;;;5009914;28;20030;-76
2021/06/03 00:32:38;;;;;;;4.97;4.43;;;19.70;65.20;;;;;;5007675;28;20096;-76
2021/06/03 00:35:04;;;;;;;6.72;4.57;;;19.70;65.20;;;;;;5001512;28;20079;-76
2021/06/03 00:37:30;;;;;;;5.38;4.30;;;19.70;65.20;;;;;;5000965;28;20030;-77
2021/06/03 00:39:56;;;;;;;6.72;4.10;;;19.70;65.20;;;;;;5009022;28;20025;-76
2021/06/03 00:42:22;;;;;;;9.48;5.15;;;19.60;65.50;;;;;;5000778;28;20030;-76
2021/06/03 00:44:48;;;;;;;7.85;4.30;;;19.60;65.40;;;;;;5010526;28;20629;-76
2021/06/03 00:47:14;;;;;;;6.35;4.13;;;19.60;65.60;;;;;;4998373;28;20030;-76
2021/06/03 00:49:39;;;;;;;5.47;4.70;;;19.60;65.80;;;;;;5017135;28;20129;-75
2021/06/03 00:52:05;;;;;;;7.50;4.78;;;19.50;65.70;;;;;;5004374;28;20034;-75
2021/06/03 00:54:31;;;;;;;6.40;4.68;;;19.50;65.70;;;;;;5013062;28;20378;-76
2021/06/03 00:56:57;;;;;;;5.78;4.32;;;19.50;65.90;;;;;;5000042;28;20030;-77
2021/06/03 00:59:23;;;;;;;4.65;4.03;;;19.50;65.90;;;;;;4999692;28;20152;-76
2021/06/03 01:01:48;;;;;;;5.55;3.90;;;19.40;65.90;;;;;;5017859;28;20021;-76
2021/06/03 01:04:19;;;;;;;5.85;4.15;;;19.40;65.90;;;;;;5004935;28;20411;-75
2021/06/03 01:06:44;;;;;;;4.78;4.28;;;19.40;66.20;;;;;;4999142;28;20061;-76
2021/06/03 01:09:22;;;;;;;7.43;4.40;;;19.40;66.30;;;;;;4999627;28;20057;-76
2021/06/03 01:12:03;;;;;;;4.85;4.10;;;19.40;66.50;;;;;;5002028;28;20401;-74
2021/06/03 01:14:37;;;;;;;5.75;4.80;;;19.30;66.50;;;;;;5003009;28;20026;-77
2021/06/03 01:17:04;;;;;;;7.32;4.97;;;19.30;66.50;;;;;;5003659;28;20053;-76
2021/06/03 01:19:37;;;;;;;6.45;4.43;;;19.20;66.60;;;;;;5009964;28;20452;-74
2021/06/03 01:22:21;;;;;;;6.68;4.63;;;19.30;66.70;;;;;;5013936;28;20030;-75
2021/06/03 01:24:49;;;;;;;4.45;4.05;;;19.20;66.80;;;;;;5010425;28;20041;-75
2021/06/03 01:27:30;;;;;;;4.93;4.50;;;19.20;66.70;;;;;;5004779;28;20038;-75
2021/06/03 01:30:11;;;;;;;5.25;4.15;;;19.20;66.80;;;;;;5009426;28;20085;-76
2021/06/03 01:32:40;;;;;;;5.40;4.13;;;19.20;66.90;;;;;;5012089;28;20450;-76
2021/06/03 01:35:11;;;;;;;5.03;4.13;;;19.20;66.80;;;;;;5004985;28;20031;-76
2021/06/03 01:37:40;;;;;;;5.93;4.22;;;19.20;66.90;;;;;;5008468;28;20034;-75
2021/06/03 01:40:08;;;;;;;5.38;4.40;;;19.20;66.80;;;;;;5004505;28;20029;-76
2021/06/03 01:42:35;;;;;;;5.00;4.18;;;19.20;66.90;;;;;;5012089;28;20136;-75
2021/06/03 01:45:02;;;;;;;5.38;4.25;;;19.10;67.10;;;;;;5009247;28;20491;-76
2021/06/03 01:47:29;;;;;;;6.68;4.13;;;19.10;67.20;;;;;;5000146;28;20093;-76
2021/06/03 01:49:56;;;;;;;4.80;4.28;;;19.10;67.30;;;;;;5012965;28;20072;-76
2021/06/03 01:52:23;;;;;;;6.30;4.40;;;19.00;67.20;;;;;;5005520;28;20034;-76
2021/06/03 01:54:48;;;;;;;6.07;4.38;;;19.00;67.50;;;;;;5016182;28;20022;-76
2021/06/03 01:57:14;;;;;;;7.82;4.57;;;19.00;67.50;;;;;;5003002;28;20401;-76
2021/06/03 01:59:40;;;;;;;6.60;4.65;;;19.00;67.50;;;;;;5002420;28;20503;-76
2021/06/03 02:02:06;;;;;;;4.97;4.30;;;18.90;67.50;;;;;;5007506;28;20109;-75
2021/06/03 02:04:32;;;;;;;8.48;5.43;;;19.00;67.80;;;;;;5004333;28;20484;-76
2021/06/03 02:06:58;;;;;;;6.00;4.50;;;18.90;67.80;;;;;;5001098;28;20044;-76
2021/06/03 02:09:23;;;;;;;6.72;4.80;;;18.90;67.80;;;;;;5004353;28;20034;-76
2021/06/03 02:11:49;;;;;;;4.82;4.00;;;18.90;67.80;;;;;;5006370;28;20556;-75
2021/06/03 02:14:31;;;;;;;7.50;4.45;;;18.90;68.00;;;;;;5010261;28;20029;-76
2021/06/03 02:17:02;;;;;;;6.07;4.47;;;18.90;68.00;;;;;;5001002;28;20026;-75
2021/06/03 02:19:34;;;;;;;7.78;4.70;;;18.80;68.10;;;;;;5002246;28;20120;-76
2021/06/03 02:22:02;;;;;;;7.07;4.68;;;18.80;68.20;;;;;;5019169;28;20030;-75
2021/06/03 02:24:29;;;;;;;6.80;4.28;;;18.80;68.10;;;;;;5021490;28;20022;-73
2021/06/03 02:26:55;;;;;;;5.35;4.72;;;18.80;68.20;;;;;;5002438;28;20523;-76
2021/06/03 02:29:21;;;;;;;7.13;4.90;;;18.80;68.40;;;;;;5003328;28;20057;-76
2021/06/03 02:31:47;;;;;;;7.63;5.10;;;18.80;68.50;;;;;;4999086;28;20027;-76
2021/06/03 02:34:13;;;;;;;6.07;4.55;;;18.80;68.50;;;;;;5005468;28;20042;-75
2021/06/03 02:36:39;;;;;;;5.20;4.43;;;18.70;68.50;;;;;;5009958;28;20022;-75
2021/06/03 02:39:07;;;;;;;6.97;4.68;;;18.70;68.50;;;;;;5002998;28;20469;-76
2021/06/03 02:41:33;;;;;;;4.80;4.20;;;18.70;68.30;;;;;;5006873;28;20324;-76
2021/06/03 02:44:00;;;;;;;6.70;4.68;;;18.70;68.50;;;;;;5001484;28;20023;-76
2021/06/03 02:46:26;;;;;;;6.40;4.97;;;18.70;68.60;;;;;;5005687;28;20029;-75
2021/06/03 02:48:52;;;;;;;6.00;4.53;;;18.70;68.80;;;;;;4997811;28;20038;-75
2021/06/03 02:51:18;;;;;;;7.93;4.88;;;18.60;68.70;;;;;;5004510;28;20056;-76
2021/06/03 02:53:46;;;;;;;5.57;4.45;;;18.60;68.80;;;;;;4998652;28;20038;-76
2021/06/03 02:56:17;;;;;;;7.80;4.55;;;18.60;68.80;;;;;;5004236;28;20041;-76
2021/06/03 02:58:43;;;;;;;5.68;4.43;;;18.70;68.90;;;;;;5018997;28;20026;-76
2021/06/03 03:01:09;;;;;;;6.22;4.50;;;18.60;69.10;;;;;;4979887;28;20032;-75
2021/06/03 03:03:35;;;;;;;7.10;4.53;;;18.60;69.20;;;;;;5008758;28;20038;-76
2021/06/03 03:06:00;;;;;;;5.05;4.05;;;18.60;69.20;;;;;;5021697;28;20064;-75
2021/06/03 03:08:26;;;;;;;5.55;4.50;;;18.60;69.30;;;;;;5003932;28;20035;-75
2021/06/03 03:10:56;;;;;;;6.72;4.63;;;18.50;69.50;;;;;;5002419;28;20026;-76
2021/06/03 03:13:22;;;;;;;6.90;4.88;;;18.50;69.60;;;;;;5009115;28;20044;-76
2021/06/03 03:15:48;;;;;;;6.80;5.22;;;18.50;69.60;;;;;;5005849;28;20034;-76
2021/06/03 03:18:14;;;;;;;4.93;4.30;;;18.50;69.80;;;;;;4997333;28;20026;-77
2021/06/03 03:20:41;;;;;;;5.30;4.25;;;18.50;69.90;;;;;;5000096;28;20030;-76
2021/06/03 03:23:08;;;;;;;6.03;4.38;;;18.50;70.10;;;;;;5002014;28;20523;-76
2021/06/03 03:25:34;;;;;;;6.90;4.90;;;18.50;70.10;;;;;;5012109;28;20108;-76
2021/06/03 03:28:02;;;;;;;7.05;4.53;;;18.50;70.30;;;;;;4999825;28;20077;-75
2021/06/03 03:30:30;;;;;;;5.78;4.25;;;18.50;70.30;;;;;;5020088;28;20041;-76
2021/06/03 03:32:56;;;;;;;7.68;4.47;;;18.40;70.50;;;;;;5007028;28;20038;-77
2021/06/03 03:35:22;;;;;;;6.80;4.55;;;18.40;70.60;;;;;;5007075;28;20045;-77
2021/06/03 03:37:48;;;;;;;6.15;4.55;;;18.40;70.60;;;;;;5004013;28;20026;-76
2021/06/03 03:40:17;;;;;;;6.40;4.82;;;18.40;70.60;;;;;;5010473;28;20026;-75
2021/06/03 03:42:43;;;;;;;6.57;4.82;;;18.40;70.90;;;;;;5005871;28;20026;-75
2021/06/03 03:45:11;;;;;;;7.10;5.20;;;18.40;71.10;;;;;;5006678;28;20022;-76
2021/06/03 03:47:37;;;;;;;5.90;4.60;;;18.30;71.20;;;;;;5009851;28;20030;-76
2021/06/03 03:50:05;;;;;;;5.60;4.65;;;18.40;71.20;;;;;;5004056;28;20391;-76
2021/06/03 03:52:30;;;;;;;7.20;4.72;;;18.40;71.30;;;;;;5020903;28;20040;-75
2021/06/03 03:54:56;;;;;;;6.47;4.43;;;18.40;71.30;;;;;;5001191;28;20034;-76
2021/06/03 03:57:24;;;;;;;8.30;4.80;;;18.40;71.60;;;;;;5003880;28;20035;-75
2021/06/03 03:59:50;;;;;;;7.30;4.78;;;18.40;71.50;;;;;;4996396;28;20034;-77
2021/06/03 04:02:16;;;;;;;8.30;5.05;;;18.30;71.70;;;;;;5022758;28;20058;-76
2021/06/03 04:04:42;;;;;;;5.70;4.72;;;18.30;71.50;;;;;;5002735;28;20025;-76
2021/06/03 04:07:08;;;;;;;5.10;4.60;;;18.40;71.70;;;;;;5012920;28;20091;-76
2021/06/03 04:09:35;;;;;;;5.82;4.93;;;18.40;71.80;;;;;;5000618;28;20030;-76
2021/06/03 04:12:01;;;;;;;6.93;4.75;;;18.40;71.90;;;;;;5017925;28;20037;-76
2021/06/03 04:14:27;;;;;;;9.18;5.00;;;18.40;71.80;;;;;;5000002;28;20034;-76
2021/06/03 04:16:53;;;;;;;7.35;4.47;;;18.40;72.00;;;;;;5009731;28;20057;-76
2021/06/03 04:19:19;;;;;;;7.20;4.93;;;18.30;71.80;;;;;;4998976;28;20485;-76
2021/06/03 04:21:45;;;;;;;6.15;4.72;;;18.30;71.90;;;;;;5004158;28;20370;-76
2021/06/03 04:24:11;;;;;;;10.93;5.28;;;18.30;71.80;;;;;;5002752;28;20091;-76
2021/06/03 04:26:37;;;;;;;7.32;5.53;;;18.40;72.00;;;;;;5008700;28;20034;-77
2021/06/03 04:29:03;;;;;;;7.38;5.65;;;18.30;71.90;;;;;;5008627;28;20400;-76
2021/06/03 04:31:33;;;;;;;7.53;4.82;;;18.30;71.80;;;;;;5003834;28;20026;-76
2021/06/03 04:33:59;;;;;;;8.07;4.95;;;18.40;71.70;;;;;;4998552;28;20061;-76
2021/06/03 04:36:25;;;;;;;6.25;5.18;;;18.40;71.70;;;;;;5009081;28;20053;-76
2021/06/03 04:38:50;;;;;;;8.43;4.93;;;18.40;71.80;;;;;;5009567;28;20157;-75
2021/06/03 04:41:16;;;;;;;6.45;5.00;;;18.40;71.80;;;;;;5011447;28;20026;-75
2021/06/03 04:43:43;;;;;;;8.20;5.07;;;18.40;71.90;;;;;;5013844;28;20037;-76
2021/06/03 04:46:10;;;;;;;6.05;4.75;;;18.40;71.90;;;;;;5005599;28;20093;-76
2021/06/03 04:48:36;;;;;;;10.27;4.88;;;18.40;72.00;;;;;;5009500;28;20032;-75
2021/06/03 04:51:02;;;;;;;7.10;4.97;;;18.40;72.00;;;;;;5005671;28;20563;-77
2021/06/03 04:53:28;;;;;;;6.95;5.13;;;18.30;71.90;;;;;;5005920;28;20042;-76
2021/06/03 04:55:54;;;;;;;9.10;4.97;;;18.30;72.20;;;;;;4999230;28;20037;-77
2021/06/03 04:58:19;;;;;;;6.55;5.50;;;18.30;72.20;;;;;;5018791;28;20396;-77
2021/06/03 05:00:45;;;;;;;6.80;5.20;;;18.30;72.40;;;;;;5009411;28;20026;-76
2021/06/03 05:03:14;;;;;;;7.10;5.47;;;18.30;72.10;;;;;;5002165;28;20416;-75
2021/06/03 05:05:40;;;;;;;8.32;5.38;;;18.40;72.10;;;;;;5019047;28;20116;-76
2021/06/03 05:08:07;;;;;;;8.27;5.57;;;18.40;72.40;;;;;;5007165;28;20088;-76
2021/06/03 05:10:34;;;;;;;7.43;5.43;;;18.40;72.20;;;;;;5007054;28;20036;-73
2021/06/03 05:13:00;;;;;;;10.02;6.40;;;18.30;73.00;;;;;;5012380;28;20042;-74
2021/06/03 05:15:27;;;;;;;9.38;5.75;;;18.30;72.30;;;;;;5011339;28;20412;-73
2021/06/03 05:17:54;;;;;;;13.85;5.85;;;18.30;72.40;;;;;;5007424;28;20057;-75
2021/06/03 05:20:23;;;;;;;7.93;5.70;;;18.40;72.60;;;;;;5012127;28;20502;-74
2021/06/03 05:22:50;;;;;;;7.40;5.82;;;18.40;72.40;;;;;;5012150;28;20419;-74
2021/06/03 05:25:19;;;;;;;8.30;5.78;;;18.40;72.30;;;;;;5009883;28;20022;-74
2021/06/03 05:27:45;;;;;;;6.18;5.00;;;18.40;72.20;;;;;;5017866;28;20494;-75
2021/06/03 05:30:13;;;;;;;9.75;5.63;;;18.40;72.10;;;;;;5007636;28;20035;-73
2021/06/03 05:32:39;;;;;;;6.15;5.22;;;18.40;72.20;;;;;;5005753;28;20107;-73
2021/06/03 05:35:07;;;;;;;8.18;6.00;;;18.40;72.20;;;;;;5002039;28;20595;-74
2021/06/03 05:37:33;;;;;;;8.65;6.13;;;18.40;72.50;;;;;;5019949;28;20077;-75
2021/06/03 05:39:59;;;;;;;7.32;5.40;;;18.50;72.30;;;;;;5025226;28;20488;-74
2021/06/03 05:42:25;;;;;;;8.82;5.40;;;18.50;72.30;;;;;;5004849;28;20065;-73
2021/06/03 05:44:50;;;;;;;10.32;5.97;;;18.50;72.20;;;;;;5004737;28;20122;-74
2021/06/03 05:47:16;;;;;;;10.27;5.70;;;18.50;72.60;;;;;;5008737;28;20100;-74
2021/06/03 05:49:42;;;;;;;9.85;6.18;;;18.50;72.60;;;;;;4999125;28;20030;-75
2021/06/03 05:52:08;;;;;;;9.70;5.60;;;18.50;72.20;;;;;;4999014;28;20064;-75
2021/06/03 05:54:34;;;;;;;8.95;5.53;;;18.50;72.30;;;;;;5007375;28;20026;-73
2021/06/03 05:57:00;;;;;;;5.90;5.05;;;18.60;72.20;;;;;;5007723;28;20022;-74
2021/06/03 05:59:27;;;;;;;8.57;5.60;;;18.60;72.50;;;;;;5001990;28;20109;-74
2021/06/03 06:01:58;;;;;;;10.20;5.80;;;18.60;72.20;;;;;;5003559;28;20049;-74
2021/06/03 06:06:49;;;;;;;8.93;6.47;;;18.60;71.90;;;;;;5019033;28;19909;-73
2021/06/03 06:09:15;;;;;;;11.10;6.22;;;18.60;72.30;;;;;;5009922;28;20377;-73
2021/06/03 06:11:42;;;;;;;9.00;6.00;;;18.60;72.40;;;;;;5014394;28;20123;-74
2021/06/03 06:14:08;;;;;;;7.60;5.78;;;18.70;72.10;;;;;;5009132;28;20029;-73
2021/06/03 06:16:35;;;;;;;9.25;5.55;;;18.70;72.10;;;;;;5013009;28;20018;-73
2021/06/03 06:19:02;;;;;;;9.43;6.43;;;18.70;72.10;;;;;;5004051;28;20031;-73
2021/06/03 06:21:29;;;;;;;7.00;5.93;;;18.70;72.00;;;;;;5009246;28;20057;-73
2021/06/03 06:23:56;;;;;;;9.90;5.55;;;18.70;72.00;;;;;;5014212;28;20038;-73
2021/06/03 06:26:24;;;;;;;9.10;5.88;;;18.70;72.10;;;;;;5008711;28;20026;-73
2021/06/03 06:28:50;;;;;;;7.20;5.57;;;18.70;72.00;;;;;;5008253;28;20481;-72
2021/06/03 06:31:17;;;;;;;6.78;5.18;;;18.70;72.20;;;;;;5008581;28;20038;-67
2021/06/03 06:33:43;;;;;;;6.75;5.15;;;18.80;72.20;;;;;;5008097;28;20546;-68
2021/06/03 06:36:10;;;;;;;6.18;5.20;;;18.80;72.40;;;;;;5009576;28;20472;-68
2021/06/03 06:38:37;;;;;;;9.50;5.72;;;18.80;72.10;;;;;;5010032;28;20459;-67
2021/06/03 06:41:03;;;;;;;11.32;6.18;;;18.80;72.10;;;;;;5012285;28;20030;-67
2021/06/03 06:43:29;;;;;;;7.40;5.35;;;18.80;72.60;;;;;;5011167;28;20044;-67
2021/06/03 06:45:55;;;;;;;7.00;5.28;;;18.80;72.40;;;;;;5011353;28;20116;-67
2021/06/03 06:48:21;;;;;;;9.68;6.20;;;18.80;72.40;;;;;;5010041;28;20039;-67
2021/06/03 06:50:49;;;;;;;6.85;5.50;;;18.90;72.60;;;;;;5009291;28;20540;-68
2021/06/03 06:53:15;;;;;;;8.40;6.07;;;18.90;72.50;;;;;;5011425;28;20038;-69
2021/06/03 06:55:41;;;;;;;10.45;5.75;;;18.90;72.30;;;;;;5009774;28;20041;-68
2021/06/03 06:58:07;;;;;;;10.15;5.78;;;18.90;72.20;;;;;;5005125;28;20120;-68
2021/06/03 07:00:36;;;;;;;8.68;5.95;;;18.90;72.30;;;;;;5009327;28;20121;-73
2021/06/03 07:03:02;;;;;;;11.73;6.20;;;18.90;72.20;;;;;;5013880;28;20097;-74
2021/06/03 07:05:28;;;;;;;12.98;6.15;;;18.90;72.40;;;;;;5002624;28;20516;-73
2021/06/03 07:07:54;;;;;;;10.98;6.72;;;18.90;72.60;;;;;;5028486;28;20038;-73
2021/06/03 07:10:20;;;;;;;6.10;5.00;;;19.00;72.50;;;;;;5034669;28;20242;-73
2021/06/03 07:12:51;;;;;;;6.72;5.13;;;19.00;72.70;;;;;;5017132;28;20029;-73
2021/06/03 07:15:17;;;;;;;8.60;5.97;;;19.10;72.90;;;;;;5012341;28;20400;-74
2021/06/03 07:17:44;;;;;;;6.93;5.68;;;19.10;72.80;;;;;;5005646;28;20030;-75
2021/06/03 07:20:15;;;;;;;8.25;5.25;;;19.20;73.00;;;;;;5015356;28;20026;-75
2021/06/03 07:22:42;;;;;;;;;;;19.30;72.80;;;;;;5016973;28;20048;-74
2021/06/03 07:25:09;;;;;;;7.28;5.75;;;19.40;72.60;;;;;;5012839;28;19936;-75
2021/06/03 07:27:37;;;;;;;8.57;5.10;;;19.40;72.70;;;;;;5013447;28;20092;-75
2021/06/03 07:30:05;;;;;;;6.15;5.40;;;19.50;72.40;;;;;;5014565;28;20546;-76
2021/06/03 07:32:30;;;;;;;7.15;5.35;;;19.60;72.00;;;;;;5004066;28;20089;-75
2021/06/03 07:34:57;;;;;;;10.88;5.97;;;19.70;71.30;;;;;;5012420;28;20488;-75
2021/06/03 07:37:24;;;;;;;8.20;5.38;;;19.80;71.60;;;;;;5013256;28;20038;-75
2021/06/03 07:39:50;;;;;;;7.68;5.50;;;19.90;71.50;;;;;;5012370;28;20109;-74
2021/06/03 07:42:17;;;;;;;6.88;4.97;;;20.00;71.70;;;;;;5010596;28;20080;-75
2021/06/03 07:44:43;;;;;;;7.35;5.32;;;20.10;71.20;;;;;;5005011;28;20392;-77
2021/06/03 07:47:09;;;;;;;7.53;5.03;;;20.10;71.10;;;;;;5024303;28;20035;-78
2021/06/03 07:49:35;;;;;;;9.10;5.10;;;20.20;69.80;;;;;;5015333;28;20022;-77
2021/06/03 07:52:04;;;;;;;6.90;4.97;;;20.20;69.80;;;;;;5018957;28;20030;-78
2021/06/03 07:54:30;;;;;;;5.97;4.80;;;20.30;69.90;;;;;;5015800;28;20018;-78
2021/06/03 07:56:57;;;;;;;6.55;5.35;;;20.30;70.00;;;;;;5021388;28;20064;-77
2021/06/03 07:59:23;;;;;;;8.48;5.57;;;20.30;70.30;;;;;;5015090;28;20448;-77
2021/06/03 08:01:49;;;;;;;8.65;5.13;;;20.40;70.40;;;;;;5013009;28;20053;-72
2021/06/03 08:04:14;;;;;;;9.45;5.10;;;20.40;70.20;;;;;;5005571;28;20034;-71
2021/06/03 08:06:40;;;;;;;7.97;5.25;;;20.40;70.40;;;;;;5009250;28;20524;-72
2021/06/03 08:09:06;;;;;;;8.80;5.55;;;20.50;70.00;;;;;;5006684;28;20029;-72
2021/06/03 08:11:32;;;;;;;8.43;5.38;;;20.50;69.60;;;;;;5007048;28;20030;-71
2021/06/03 08:13:58;;;;;;;13.15;5.85;;;20.60;69.50;;;;;;5008457;28;20053;-71
2021/06/03 08:16:24;;;;;;;6.20;5.15;;;20.60;69.70;;;;;;5007874;28;20119;-71
2021/06/03 08:18:50;;;;;;;9.65;5.97;;;20.60;69.80;;;;;;5007280;28;20502;-72
2021/06/03 08:21:16;;;;;;;7.05;5.53;;;20.70;70.10;;;;;;4992205;28;20023;-71
2021/06/03 08:23:42;;;;;;;7.40;5.03;;;20.80;70.50;;;;;;5015240;28;20029;-71
2021/06/03 08:26:08;;;;;;;6.68;5.28;;;20.90;69.90;;;;;;5012752;28;20023;-77
2021/06/03 08:28:33;;;;;;;7.13;5.30;;;21.10;69.10;;;;;;5021231;28;20611;-77
2021/06/03 08:31:00;;;;;;;6.80;5.13;;;21.20;69.20;;;;;;5017354;28;20141;-79
2021/06/03 08:33:27;;;;;;;5.55;4.55;;;21.30;69.30;;;;;;5013034;28;20053;-77
2021/06/03 08:35:53;;;;;;;8.02;5.40;;;21.40;68.30;;;;;;5020352;28;20029;-77
2021/06/03 08:38:19;;;;;;;7.25;5.30;;;21.50;68.20;;;;;;5015751;28;20038;-78
2021/06/03 08:40:52;;;;;;;8.93;5.50;;;21.50;67.50;;;;;;5013461;28;20053;-78
2021/06/03 08:43:21;;;;;;;6.10;4.72;;;21.60;66.60;;;;;;5015906;28;20056;-77
2021/06/03 08:45:48;;;;;;;6.80;4.78;;;21.70;66.70;;;;;;5016040;28;20048;-77
2021/06/03 08:48:15;;;;;;;5.22;4.72;;;21.70;66.60;;;;;;5007274;28;20026;-75
2021/06/03 08:50:50;;;;;;;7.28;4.90;;;21.70;67.00;;;;;;5010034;28;20095;-77
2021/06/03 08:53:16;;;;;;;7.07;5.13;;;21.80;67.10;;;;;;5008775;28;20030;-76
2021/06/03 08:58:27;;;;;;;7.43;4.43;;;21.80;66.90;;;;;;5006870;28;20052;-71
2021/06/03 09:00:57;;;;;;;8.68;4.88;;;21.80;66.90;;;;;;5009636;28;20313;-70
2021/06/03 09:03:24;;;;;;;6.20;4.77;;;21.90;66.40;;;;;;4983318;28;20037;-72
2021/06/03 09:05:50;;;;;;;8.90;5.03;;;22.00;66.80;;;;;;5005273;28;20026;-70
2021/06/03 09:08:22;;;;;;;6.93;5.30;;;22.00;66.80;;;;;;5009237;28;20042;-70
2021/06/03 09:10:56;;;;;;;7.20;4.90;;;22.10;67.00;;;;;;5009696;28;20370;-73
2021/06/03 09:13:25;;;;;;;7.45;4.88;;;22.20;66.80;;;;;;5009967;28;20034;-73
2021/06/03 09:15:57;;;;;;;8.88;5.40;;;22.30;66.00;;;;;;5009073;28;20523;-73
2021/06/03 09:18:45;;;;;;;7.68;5.15;;;22.40;65.00;;;;;;5013926;28;20591;-74
2021/06/03 09:21:18;;;;;;;7.13;5.18;;;22.40;65.50;;;;;;5008207;28;20037;-73
2021/06/03 09:24:04;;;;;;;5.97;5.10;;;22.40;64.60;;;;;;5009091;28;20499;-73
2021/06/03 09:26:35;;;;;;;10.65;5.03;;;22.40;64.80;;;;;;5008288;28;20572;-72
2021/06/03 09:29:04;;;;;;;7.30;4.57;;;22.50;63.90;;;;;;5005811;28;20042;-73
2021/06/03 09:31:32;;;;;;;6.63;4.60;;;22.50;64.60;;;;;;5006556;28;20034;-72
2021/06/03 09:34:08;;;;;;;8.77;4.65;;;22.60;65.10;;;;;;5010473;28;20045;-71
2021/06/03 09:36:55;;;;;;;5.20;4.47;;;22.60;64.30;;;;;;5010085;28;20034;-73
2021/06/03 09:39:22;;;;;;;5.65;4.60;;;22.50;64.00;;;;;;5010308;28;20041;-73
2021/06/03 09:41:55;;;;;;;5.25;4.70;;;22.50;64.30;;;;;;5017429;28;20030;-72
2021/06/03 09:44:25;;;;;;;11.30;4.70;;;22.40;65.00;;;;;;5009492;28;20551;-72
2021/06/03 09:46:54;;;;;;;5.00;4.50;;;22.40;65.30;;;;;;5012326;28;20030;-72
2021/06/03 09:49:29;;;;;;;6.78;4.38;;;22.40;64.30;;;;;;5013523;28;20388;-72
2021/06/03 09:52:01;;;;;;;6.00;4.65;;;22.40;64.70;;;;;;5008455;28;20025;-71
2021/06/03 09:54:28;;;;;;;7.53;4.32;;;22.30;64.40;;;;;;5013013;28;20030;-72
2021/06/03 09:56:56;;;;;;;6.55;4.82;;;22.30;64.80;;;;;;5011045;28;20392;-72
2021/06/03 09:59:29;;;;;;;8.23;4.90;;;22.20;64.30;;;;;;5011500;28;20476;-71
2021/06/03 10:02:05;;;;;;;5.93;4.53;;;22.20;64.30;;;;;;5017217;28;20496;-73
2021/06/03 10:04:37;;;;;;;5.68;4.32;;;22.20;64.00;;;;;;5013114;28;20076;-73
2021/06/03 10:07:06;;;;;;;7.80;5.13;;;22.20;64.10;;;;;;5012580;28;20026;-73
2021/06/03 10:09:42;;;;;;;9.50;4.95;;;22.20;64.00;;;;;;5007829;28;20084;-72
2021/06/03 10:12:24;;;;;;;7.45;5.15;;;22.20;63.80;;;;;;5010236;28;20026;-72
2021/06/03 10:14:50;;;;;;;7.43;5.05;;;22.20;62.60;;;;;;5006221;28;20061;-73
2021/06/03 10:17:21;;;;;;;8.60;5.00;;;22.10;63.10;;;;;;5010395;28;20026;-74
2021/06/03 10:19:48;;;;;;;7.50;5.03;;;22.20;63.30;;;;;;5013934;28;20464;-72
2021/06/03 10:22:28;;;;;;;8.85;5.28;;;22.10;63.10;;;;;;5009366;28;20034;-72
2021/06/03 10:24:56;;;;;;;8.15;4.60;;;22.20;63.40;;;;;;5010090;28;20087;-70
2021/06/03 10:27:26;;;;;;;10.43;4.80;;;22.20;63.50;;;;;;5009187;28;20034;-74
2021/06/03 11:47:14;;;;;;;4.65;3.85;;;22.20;63.70;;;;;;4955053;28;20667;-73
2021/06/03 11:49:40;;;;;;;7.35;5.07;;;22.20;63.90;;;;;;4938508;28;20039;-76
2021/06/03 11:52:10;;;;;;;5.47;4.45;;;22.20;64.10;;;;;;4954015;28;20410;-79
2021/06/03 11:54:54;;;;;;;6.10;4.60;;;22.20;64.50;;;;;;4959296;28;20035;-77
2021/06/03 11:57:31;;;;;;;7.97;6.05;;;22.20;64.50;;;;;;4958476;28;20067;-77
2021/06/03 12:00:06;;;;;;;12.45;8.63;;;22.20;64.10;;;;;;4955682;28;20506;-78
2021/06/03 12:02:36;;;;;;;11.48;7.43;;;22.20;64.10;;;;;;4965209;28;20046;-78
2021/06/03 12:05:13;;;;;;;8.70;5.85;;;22.20;64.40;;;;;;4957767;28;20073;-79
2021/06/03 12:07:44;;;;;;;10.68;6.57;;;22.30;64.30;;;;;;4957989;28;20063;-78
2021/06/03 12:10:12;;;;;;;8.70;6.07;;;22.20;64.80;;;;;;4963335;28;20125;-77
2021/06/03 12:12:38;;;;;;;8.95;5.63;;;22.20;64.80;;;;;;4957794;28;20490;-76
2021/06/03 12:15:25;;;;;;;7.70;5.75;;;22.20;64.70;;;;;;4961418;28;20037;-77
2021/06/03 12:17:56;;;;;;;11.75;5.45;;;22.20;64.50;;;;;;4950556;28;20118;-74
2021/06/03 12:20:22;;;;;;;;;;;22.20;64.50;;;;;;4953295;28;20035;-75
2021/06/03 12:22:48;;;;;;;8.63;4.90;;;22.20;64.60;;;;;;4937218;28;19966;-74
2021/06/03 12:25:15;;;;;;;6.50;5.13;;;22.20;64.80;;;;;;4952369;28;20028;-74
2021/06/03 12:27:47;;;;;;;9.52;5.10;;;22.20;64.30;;;;;;4948943;28;20040;-74
2021/06/03 12:30:28;;;;;;;9.32;5.03;;;22.20;64.60;;;;;;4936308;28;20035;-74
2021/06/03 12:33:00;;;;;;;7.25;4.75;;;22.20;63.90;;;;;;4950334;28;20688;-74
2021/06/03 12:35:40;;;;;;;7.55;4.90;;;22.20;64.30;;;;;;4953386;28;20043;-75
2021/06/03 12:38:07;;;;;;;10.03;5.43;;;22.10;63.70;;;;;;4952301;28;20039;-74
2021/06/03 12:40:34;;;;;;;10.15;5.35;;;22.10;64.10;;;;;;4953167;28;20023;-75
2021/06/03 12:43:03;;;;;;;6.88;4.72;;;22.10;63.70;;;;;;4935871;28;20083;-76
2021/06/03 12:45:35;;;;;;;7.90;4.47;;;22.10;64.00;;;;;;4951706;28;20027;-74
2021/06/03 12:48:01;;;;;;;4.97;4.30;;;22.10;63.30;;;;;;4951048;28;20027;-75
2021/06/03 12:50:27;;;;;;;6.13;4.38;;;22.10;63.30;;;;;;4943155;28;20091;-75
2021/06/03 12:52:53;;;;;;;5.35;4.32;;;22.10;63.30;;;;;;4949053;28;20511;-74
2021/06/03 12:55:23;;;;;;;6.90;4.28;;;22.10;63.20;;;;;;4951511;28;20049;-72
2021/06/03 12:57:51;;;;;;;5.67;4.17;;;22.10;63.20;;;;;;4951974;28;20026;-73
2021/06/03 13:00:22;;;;;;;5.40;4.20;;;22.10;63.00;;;;;;4948441;28;20588;-74
2021/06/03 13:02:49;;;;;;;6.70;4.50;;;22.10;63.20;;;;;;4950811;28;20114;-75
2021/06/03 13:05:17;;;;;;;4.68;4.18;;;22.10;63.20;;;;;;4950837;28;20035;-75
2021/06/03 13:07:44;;;;;;;6.32;4.50;;;22.20;63.50;;;;;;4953464;28;20126;-75
2021/06/03 13:10:17;;;;;;;5.68;4.68;;;22.20;63.70;;;;;;4959113;28;20545;-75
2021/06/03 13:12:49;;;;;;;6.38;4.47;;;22.20;63.60;;;;;;4959497;28;20465;-75
2021/06/03 13:15:16;;;;;;;5.32;4.30;;;22.20;63.40;;;;;;4955661;28;20031;-75
2021/06/03 13:17:45;;;;;;;5.35;4.28;;;22.30;63.60;;;;;;4953901;28;20035;-75
2021/06/03 13:20:19;;;;;;;5.93;4.82;;;22.30;63.70;;;;;;4959931;28;20061;-75
2021/06/03 13:22:57;;;;;;;8.55;5.38;;;22.40;64.00;;;;;;4951999;28;20035;-74
2021/06/03 13:25:25;;;;;;;5.35;4.47;;;22.40;64.10;;;;;;4961895;28;20056;-75
2021/06/03 13:27:51;;;;;;;5.90;4.40;;;22.40;64.10;;;;;;4965870;28;20090;-75
2021/06/03 13:30:30;;;;;;;5.38;4.65;;;22.50;64.10;;;;;;4957289;28;20043;-74
2021/06/03 13:33:12;;;;;;;6.45;4.13;;;22.60;64.20;;;;;;4965370;28;20034;-74
2021/06/03 13:35:42;;;;;;;5.95;4.13;;;22.50;63.90;;;;;;4956766;28;20031;-74
2021/06/03 13:38:08;;;;;;;6.07;4.60;;;22.60;64.00;;;;;;4953653;28;20038;-73
2021/06/03 13:40:36;;;;;;;6.03;4.38;;;22.60;64.00;;;;;;4947988;28;20020;-75
2021/06/03 13:43:09;;;;;;;4.85;4.07;;;22.60;63.90;;;;;;4954257;28;20051;-74
2021/06/03 13:45:50;;;;;;;6.10;4.00;;;22.60;64.00;;;;;;4958030;28;20032;-76
2021/06/03 13:48:23;;;;;;;5.97;4.55;;;22.70;64.10;;;;;;4938888;28;20057;-75
2021/06/03 13:50:56;;;;;;;6.00;4.80;;;22.70;64.00;;;;;;4967926;28;20114;-73
2021/06/03 13:53:31;;;;;;;8.18;4.70;;;22.80;63.90;;;;;;4950774;28;20114;-75
2021/06/03 13:56:01;;;;;;;8.55;5.15;;;22.80;64.00;;;;;;4954809;28;20035;-74
2021/06/03 13:58:39;;;;;;;6.20;4.17;;;22.80;64.20;;;;;;4952340;28;20039;-74
2021/06/03 14:01:12;;;;;;;7.50;4.43;;;22.80;64.20;;;;;;4951416;28;20107;-75
2021/06/03 14:03:47;;;;;;;5.43;4.45;;;22.80;64.20;;;;;;4946167;28;20020;-75
2021/06/03 14:06:15;;;;;;;6.57;4.40;;;22.80;64.30;;;;;;4947609;29;20027;-75
2021/06/03 14:08:43;;;;;;;6.07;4.10;;;22.70;64.30;;;;;;4961820;28;20041;-75
2021/06/03 14:11:37;;;;;;;6.03;4.50;;;22.70;64.20;;;;;;4946987;28;20041;-75
2021/06/03 14:14:17;;;;;;;4.68;3.90;;;22.70;64.30;;;;;;4966253;28;20489;-76